sensor_id;sensor_type;location;lat;lon;timestamp;temperature;humidity
22917;DHT22;11624;53.250;7.456;2023-08-30T00:02:07;22.26;52.07
22917;DHT22;11624;53.250;7.456;2023-08-30T00:04:35;22.23;52.60
22917;DHT22;11624;53.250;7.456;2023-08-30T00:07:12;22.17;52.20
22917;DHT22;11624;53.250;7.456;2023-08-30T00:10:19;22.13;52.69
22917;DHT22;11624;53.250;7.456;2023-08-30T00:12:52;22.07;52.35
22917;DHT22;11624;53.250;7.456;2023-08-30T00:15:22;22.03;52.71
22917;DHT22;11624;53.250;7.456;2023-08-30T00:17:50;21.99;52.71
22917;DHT22;11624;53.250;7.456;2023-08-30T00:20:21;21.95;52.66
22917;DHT22;11624;53.250;7.456;2023-08-30T00:22:49;21.87;52.83
22917;DHT22;11624;53.250;7.456;2023-08-30T00:25:20;21.78;53.15
22917;DHT22;11624;53.250;7.456;2023-08-30T00:27:50;21.73;53.18
22917;DHT22;11624;53.250;7.456;2023-08-30T00:30:18;21.66;53.23
22917;DHT22;11624;53.250;7.456;2023-08-30T00:33:12;21.58;52.75
22917;DHT22;11624;53.250;7.456;2023-08-30T00:35:41;21.54;53.32
22917;DHT22;11624;53.250;7.456;2023-08-30T00:38:10;21.49;53.48
22917;DHT22;11624;53.250;7.456;2023-08-30T00:40:39;21.46;53.43
22917;DHT22;11624;53.250;7.456;2023-08-30T00:43:35;21.37;53.12
22917;DHT22;11624;53.250;7.456;2023-08-30T00:46:18;21.33;53.82
22917;DHT22;11624;53.250;7.456;2023-08-30T00:49:19;21.25;53.46
22917;DHT22;11624;53.250;7.456;2023-08-30T00:52:05;21.20;53.56
22917;DHT22;11624;53.250;7.456;2023-08-30T00:54:34;21.20;54.20
22917;DHT22;11624;53.250;7.456;2023-08-30T00:57:12;21.20;54.11
22917;DHT22;11624;53.250;7.456;2023-08-30T01:00:31;21.13;53.73
22917;DHT22;11624;53.250;7.456;2023-08-30T01:03:01;21.10;54.38
22917;DHT22;11624;53.250;7.456;2023-08-30T01:09:11;20.99;53.98
22917;DHT22;11624;53.250;7.456;2023-08-30T01:11:45;21.00;54.26
22917;DHT22;11624;53.250;7.456;2023-08-30T01:14:19;20.94;54.38
22917;DHT22;11624;53.250;7.456;2023-08-30T01:16:49;20.91;54.90
22917;DHT22;11624;53.250;7.456;2023-08-30T01:19:38;20.85;54.48
22917;DHT22;11624;53.250;7.456;2023-08-30T01:22:15;20.84;54.62
22917;DHT22;11624;53.250;7.456;2023-08-30T01:24:54;20.81;54.71
22917;DHT22;11624;53.250;7.456;2023-08-30T01:27:28;20.78;55.05
22917;DHT22;11624;53.250;7.456;2023-08-30T01:29:59;20.77;55.36
22917;DHT22;11624;53.250;7.456;2023-08-30T01:32:28;20.76;55.39
22917;DHT22;11624;53.250;7.456;2023-08-30T01:34:58;20.73;55.36
22917;DHT22;11624;53.250;7.456;2023-08-30T01:41:20;20.64;55.23
22917;DHT22;11624;53.250;7.456;2023-08-30T01:43:53;20.62;55.42
22917;DHT22;11624;53.250;7.456;2023-08-30T01:46:29;20.58;55.10
22917;DHT22;11624;53.250;7.456;2023-08-30T01:53:51;20.47;55.80
22917;DHT22;11624;53.250;7.456;2023-08-30T01:56:36;20.46;56.04
22917;DHT22;11624;53.250;7.456;2023-08-30T01:59:06;20.45;56.07
22917;DHT22;11624;53.250;7.456;2023-08-30T02:01:59;20.43;56.39
22917;DHT22;11624;53.250;7.456;2023-08-30T02:05:35;20.37;56.26
22917;DHT22;11624;53.250;7.456;2023-08-30T02:08:25;20.34;55.95
22917;DHT22;11624;53.250;7.456;2023-08-30T02:11:13;20.34;55.97
22917;DHT22;11624;53.250;7.456;2023-08-30T02:13:45;20.37;56.66
22917;DHT22;11624;53.250;7.456;2023-08-30T02:16:30;20.34;56.73
22917;DHT22;11624;53.250;7.456;2023-08-30T02:23:32;20.25;56.47
22917;DHT22;11624;53.250;7.456;2023-08-30T02:26:03;20.25;57.12
22917;DHT22;11624;53.250;7.456;2023-08-30T02:29:06;20.21;56.66
22917;DHT22;11624;53.250;7.456;2023-08-30T02:31:41;20.25;57.20
22917;DHT22;11624;53.250;7.456;2023-08-30T02:34:42;20.20;56.73
22917;DHT22;11624;53.250;7.456;2023-08-30T02:37:10;20.24;57.06
22917;DHT22;11624;53.250;7.456;2023-08-30T02:39:40;20.24;57.11
22917;DHT22;11624;53.250;7.456;2023-08-30T02:42:18;20.19;57.24
22917;DHT22;11624;53.250;7.456;2023-08-30T02:44:46;20.19;57.32
22917;DHT22;11624;53.250;7.456;2023-08-30T02:47:15;20.17;57.27
22917;DHT22;11624;53.250;7.456;2023-08-30T02:49:43;20.17;57.22
22917;DHT22;11624;53.250;7.456;2023-08-30T02:52:14;20.15;57.16
22917;DHT22;11624;53.250;7.456;2023-08-30T02:54:58;20.13;57.14
22917;DHT22;11624;53.250;7.456;2023-08-30T03:00:27;20.04;56.97
22917;DHT22;11624;53.250;7.456;2023-08-30T03:03:07;19.99;56.64
22917;DHT22;11624;53.250;7.456;2023-08-30T03:10:40;19.81;57.37
22917;DHT22;11624;53.250;7.456;2023-08-30T03:13:58;19.79;57.35
22917;DHT22;11624;53.250;7.456;2023-08-30T03:16:50;19.73;56.93
22917;DHT22;11624;53.250;7.456;2023-08-30T03:20:07;19.68;57.01
22917;DHT22;11624;53.250;7.456;2023-08-30T03:22:45;19.66;57.03
22917;DHT22;11624;53.250;7.456;2023-08-30T03:25:14;19.65;57.58
22917;DHT22;11624;53.250;7.456;2023-08-30T03:27:44;19.65;57.48
22917;DHT22;11624;53.250;7.456;2023-08-30T03:30:24;19.60;56.97
22917;DHT22;11624;53.250;7.456;2023-08-30T03:33:14;19.57;57.14
22917;DHT22;11624;53.250;7.456;2023-08-30T03:39:32;19.50;57.24
22917;DHT22;11624;53.250;7.456;2023-08-30T03:42:47;19.51;57.43
22917;DHT22;11624;53.250;7.456;2023-08-30T03:45:55;19.47;57.90
22917;DHT22;11624;53.250;7.456;2023-08-30T03:48:23;19.50;57.97
22917;DHT22;11624;53.250;7.456;2023-08-30T03:50:52;19.50;57.82
22917;DHT22;11624;53.250;7.456;2023-08-30T03:53:20;19.52;57.65
22917;DHT22;11624;53.250;7.456;2023-08-30T03:56:16;19.51;57.10
22917;DHT22;11624;53.250;7.456;2023-08-30T03:59:05;19.46;56.95
22917;DHT22;11624;53.250;7.456;2023-08-30T04:01:43;19.45;57.59
22917;DHT22;11624;53.250;7.456;2023-08-30T04:04:23;19.41;57.55
22917;DHT22;11624;53.250;7.456;2023-08-30T04:07:19;19.36;57.71
22917;DHT22;11624;53.250;7.456;2023-08-30T04:13:27;19.29;57.19
22917;DHT22;11624;53.250;7.456;2023-08-30T04:16:21;19.25;57.90
22917;DHT22;11624;53.250;7.456;2023-08-30T04:18:54;19.23;57.66
22917;DHT22;11624;53.250;7.456;2023-08-30T04:21:54;19.18;57.80
22917;DHT22;11624;53.250;7.456;2023-08-30T04:25:18;19.07;57.88
22917;DHT22;11624;53.250;7.456;2023-08-30T04:44:34;18.92;58.27
22917;DHT22;11624;53.250;7.456;2023-08-30T04:47:02;18.91;58.35
22917;DHT22;11624;53.250;7.456;2023-08-30T04:49:56;18.84;58.04
22917;DHT22;11624;53.250;7.456;2023-08-30T04:56:39;18.79;58.06
22917;DHT22;11624;53.250;7.456;2023-08-30T04:59:32;18.81;58.36
22917;DHT22;11624;53.250;7.456;2023-08-30T05:02:25;18.80;58.47
22917;DHT22;11624;53.250;7.456;2023-08-30T05:05:04;18.78;58.54
22917;DHT22;11624;53.250;7.456;2023-08-30T05:07:32;18.79;58.51
22917;DHT22;11624;53.250;7.456;2023-08-30T05:10:01;18.76;58.56
22917;DHT22;11624;53.250;7.456;2023-08-30T05:12:30;18.74;58.54
22917;DHT22;11624;53.250;7.456;2023-08-30T05:14:58;18.74;58.54
22917;DHT22;11624;53.250;7.456;2023-08-30T05:17:28;18.72;58.54
22917;DHT22;11624;53.250;7.456;2023-08-30T05:19:58;18.73;58.47
22917;DHT22;11624;53.250;7.456;2023-08-30T05:22:26;18.76;58.34
22917;DHT22;11624;53.250;7.456;2023-08-30T05:24:54;18.76;58.34
22917;DHT22;11624;53.250;7.456;2023-08-30T05:27:22;18.77;58.32
22917;DHT22;11624;53.250;7.456;2023-08-30T05:29:51;18.79;58.29
22917;DHT22;11624;53.250;7.456;2023-08-30T05:32:19;18.82;58.29
22917;DHT22;11624;53.250;7.456;2023-08-30T05:35:11;18.84;58.13
22917;DHT22;11624;53.250;7.456;2023-08-30T05:37:59;18.83;58.14
22917;DHT22;11624;53.250;7.456;2023-08-30T05:40:46;18.86;58.15
22917;DHT22;11624;53.250;7.456;2023-08-30T05:43:14;18.88;58.05
22917;DHT22;11624;53.250;7.456;2023-08-30T05:45:43;18.87;58.05
22917;DHT22;11624;53.250;7.456;2023-08-30T05:48:11;18.89;58.04
22917;DHT22;11624;53.250;7.456;2023-08-30T05:50:41;18.95;57.82
22917;DHT22;11624;53.250;7.456;2023-08-30T05:53:09;18.97;57.88
22917;DHT22;11624;53.250;7.456;2023-08-30T05:55:37;19.00;57.74
22917;DHT22;11624;53.250;7.456;2023-08-30T05:58:05;19.02;57.69
22917;DHT22;11624;53.250;7.456;2023-08-30T06:00:34;19.05;57.64
22917;DHT22;11624;53.250;7.456;2023-08-30T06:03:03;19.09;57.48
22917;DHT22;11624;53.250;7.456;2023-08-30T06:05:31;19.13;57.45
22917;DHT22;11624;53.250;7.456;2023-08-30T06:08:00;19.18;57.35
22917;DHT22;11624;53.250;7.456;2023-08-30T06:10:29;19.25;57.32
22917;DHT22;11624;53.250;7.456;2023-08-30T06:12:58;19.26;57.32
22917;DHT22;11624;53.250;7.456;2023-08-30T06:15:26;19.37;57.21
22917;DHT22;11624;53.250;7.456;2023-08-30T06:17:54;19.46;57.19
22917;DHT22;11624;53.250;7.456;2023-08-30T06:20:22;19.68;57.04
22917;DHT22;11624;53.250;7.456;2023-08-30T06:22:51;19.81;56.81
22917;DHT22;11624;53.250;7.456;2023-08-30T06:25:20;19.94;56.31
22917;DHT22;11624;53.250;7.456;2023-08-30T06:27:55;20.04;55.64
22917;DHT22;11624;53.250;7.456;2023-08-30T06:30:24;20.10;55.44
22917;DHT22;11624;53.250;7.456;2023-08-30T06:32:52;20.14;55.26
22917;DHT22;11624;53.250;7.456;2023-08-30T06:35:20;20.18;55.03
22917;DHT22;11624;53.250;7.456;2023-08-30T06:37:48;20.27;55.02
22917;DHT22;11624;53.250;7.456;2023-08-30T06:40:17;20.37;55.00
22917;DHT22;11624;53.250;7.456;2023-08-30T06:42:46;20.49;54.71
22917;DHT22;11624;53.250;7.456;2023-08-30T06:45:15;20.49;54.33
22917;DHT22;11624;53.250;7.456;2023-08-30T06:47:44;20.55;54.16
22917;DHT22;11624;53.250;7.456;2023-08-30T06:50:12;20.55;54.12
22917;DHT22;11624;53.250;7.456;2023-08-30T06:52:40;20.54;54.22
22917;DHT22;11624;53.250;7.456;2023-08-30T06:55:08;20.59;54.26
22917;DHT22;11624;53.250;7.456;2023-08-30T06:57:37;20.64;54.33
22917;DHT22;11624;53.250;7.456;2023-08-30T07:00:08;20.74;53.78
22917;DHT22;11624;53.250;7.456;2023-08-30T07:02:37;20.76;53.82
22917;DHT22;11624;53.250;7.456;2023-08-30T07:05:06;20.83;53.78
22917;DHT22;11624;53.250;7.456;2023-08-30T07:07:34;20.85;53.39
22917;DHT22;11624;53.250;7.456;2023-08-30T07:10:03;20.90;53.10
22917;DHT22;11624;53.250;7.456;2023-08-30T07:12:31;20.90;52.91
22917;DHT22;11624;53.250;7.456;2023-08-30T07:14:59;20.95;52.80
22917;DHT22;11624;53.250;7.456;2023-08-30T07:17:29;21.00;52.86
22917;DHT22;11624;53.250;7.456;2023-08-30T07:20:17;21.08;52.73
22917;DHT22;11624;53.250;7.456;2023-08-30T07:22:45;21.17;52.46
22917;DHT22;11624;53.250;7.456;2023-08-30T07:25:13;21.22;52.23
22917;DHT22;11624;53.250;7.456;2023-08-30T07:27:41;21.25;51.99
22917;DHT22;11624;53.250;7.456;2023-08-30T07:30:10;21.31;52.07
22917;DHT22;11624;53.250;7.456;2023-08-30T07:32:40;21.35;51.72
22917;DHT22;11624;53.250;7.456;2023-08-30T07:35:09;21.45;51.74
22917;DHT22;11624;53.250;7.456;2023-08-30T07:37:40;21.53;51.56
22917;DHT22;11624;53.250;7.456;2023-08-30T07:40:10;21.59;51.09
22917;DHT22;11624;53.250;7.456;2023-08-30T07:42:38;21.61;50.93
22917;DHT22;11624;53.250;7.456;2023-08-30T07:45:07;21.61;50.85
22917;DHT22;11624;53.250;7.456;2023-08-30T07:47:35;21.57;50.76
22917;DHT22;11624;53.250;7.456;2023-08-30T07:50:07;21.61;50.93
22917;DHT22;11624;53.250;7.456;2023-08-30T07:52:35;21.65;50.85
22917;DHT22;11624;53.250;7.456;2023-08-30T07:55:13;21.70;50.88
22917;DHT22;11624;53.250;7.456;2023-08-30T07:57:41;21.72;50.76
22917;DHT22;11624;53.250;7.456;2023-08-30T08:00:11;21.69;50.55
22917;DHT22;11624;53.250;7.456;2023-08-30T08:02:39;21.64;50.60
22917;DHT22;11624;53.250;7.456;2023-08-30T08:05:09;21.67;50.85
22917;DHT22;11624;53.250;7.456;2023-08-30T08:07:39;21.68;50.40
22917;DHT22;11624;53.250;7.456;2023-08-30T08:10:08;21.70;50.43
22917;DHT22;11624;53.250;7.456;2023-08-30T08:12:36;21.69;50.51
22917;DHT22;11624;53.250;7.456;2023-08-30T08:15:06;21.67;50.36
22917;DHT22;11624;53.250;7.456;2023-08-30T08:17:34;21.69;50.39
22917;DHT22;11624;53.250;7.456;2023-08-30T08:20:04;21.70;50.37
22917;DHT22;11624;53.250;7.456;2023-08-30T08:22:33;21.82;50.02
22917;DHT22;11624;53.250;7.456;2023-08-30T08:25:02;21.85;49.86
22917;DHT22;11624;53.250;7.456;2023-08-30T08:27:30;21.92;49.99
22917;DHT22;11624;53.250;7.456;2023-08-30T08:29:58;22.03;49.98
22917;DHT22;11624;53.250;7.456;2023-08-30T08:32:26;22.11;49.78
22917;DHT22;11624;53.250;7.456;2023-08-30T08:34:55;22.20;49.44
22917;DHT22;11624;53.250;7.456;2023-08-30T08:37:23;22.28;49.26
22917;DHT22;11624;53.250;7.456;2023-08-30T08:39:52;22.29;48.91
22917;DHT22;11624;53.250;7.456;2023-08-30T08:42:20;22.38;49.13
22917;DHT22;11624;53.250;7.456;2023-08-30T08:44:51;22.42;48.90
22917;DHT22;11624;53.250;7.456;2023-08-30T08:47:20;22.47;48.85
22917;DHT22;11624;53.250;7.456;2023-08-30T08:49:49;22.51;48.21
22917;DHT22;11624;53.250;7.456;2023-08-30T08:52:18;22.49;48.27
22917;DHT22;11624;53.250;7.456;2023-08-30T08:55:01;22.61;48.49
22917;DHT22;11624;53.250;7.456;2023-08-30T08:57:31;22.67;47.78
22917;DHT22;11624;53.250;7.456;2023-08-30T08:59:59;22.75;48.08
22917;DHT22;11624;53.250;7.456;2023-08-30T09:02:28;22.87;47.86
22917;DHT22;11624;53.250;7.456;2023-08-30T09:04:57;22.98;47.51
22917;DHT22;11624;53.250;7.456;2023-08-30T09:07:27;23.16;47.55
22917;DHT22;11624;53.250;7.456;2023-08-30T09:09:57;23.46;47.39
22917;DHT22;11624;53.250;7.456;2023-08-30T09:12:27;23.83;46.70
22917;DHT22;11624;53.250;7.456;2023-08-30T09:14:56;24.19;45.76
22917;DHT22;11624;53.250;7.456;2023-08-30T09:17:35;24.49;45.33
22917;DHT22;11624;53.250;7.456;2023-08-30T09:20:08;24.66;44.68
22917;DHT22;11624;53.250;7.456;2023-08-30T09:22:37;24.98;43.84
22917;DHT22;11624;53.250;7.456;2023-08-30T09:25:07;25.09;43.53
22917;DHT22;11624;53.250;7.456;2023-08-30T09:27:37;25.22;42.99
22917;DHT22;11624;53.250;7.456;2023-08-30T09:30:09;25.20;42.75
22917;DHT22;11624;53.250;7.456;2023-08-30T09:32:41;25.19;42.72
22917;DHT22;11624;53.250;7.456;2023-08-30T09:35:10;25.13;42.48
22917;DHT22;11624;53.250;7.456;2023-08-30T09:37:38;25.20;42.81
22917;DHT22;11624;53.250;7.456;2023-08-30T09:40:07;25.16;42.52
22917;DHT22;11624;53.250;7.456;2023-08-30T09:42:41;25.16;41.99
22917;DHT22;11624;53.250;7.456;2023-08-30T09:45:19;25.20;42.82
22917;DHT22;11624;53.250;7.456;2023-08-30T09:47:49;25.27;42.26
22917;DHT22;11624;53.250;7.456;2023-08-30T09:50:19;25.31;41.80
22917;DHT22;11624;53.250;7.456;2023-08-30T09:52:48;25.29;42.08
22917;DHT22;11624;53.250;7.456;2023-08-30T09:55:19;25.39;42.32
22917;DHT22;11624;53.250;7.456;2023-08-30T09:57:51;25.63;42.35
22917;DHT22;11624;53.250;7.456;2023-08-30T10:00:20;25.75;41.99
22917;DHT22;11624;53.250;7.456;2023-08-30T10:02:48;25.69;41.04
22917;DHT22;11624;53.250;7.456;2023-08-30T10:05:37;25.58;42.24
22917;DHT22;11624;53.250;7.456;2023-08-30T10:08:07;25.67;41.23
22917;DHT22;11624;53.250;7.456;2023-08-30T10:10:36;25.79;41.45
22917;DHT22;11624;53.250;7.456;2023-08-30T10:13:07;25.88;40.40
22917;DHT22;11624;53.250;7.456;2023-08-30T10:15:41;25.96;39.58
22917;DHT22;11624;53.250;7.456;2023-08-30T10:18:12;25.98;38.97
22917;DHT22;11624;53.250;7.456;2023-08-30T10:20:44;25.93;38.96
22917;DHT22;11624;53.250;7.456;2023-08-30T10:23:13;25.96;38.85
22917;DHT22;11624;53.250;7.456;2023-08-30T10:25:42;25.94;38.59
22917;DHT22;11624;53.250;7.456;2023-08-30T10:28:12;25.91;39.20
22917;DHT22;11624;53.250;7.456;2023-08-30T10:30:41;25.92;39.54
22917;DHT22;11624;53.250;7.456;2023-08-30T10:33:13;26.08;38.96
22917;DHT22;11624;53.250;7.456;2023-08-30T10:35:47;26.15;38.82
22917;DHT22;11624;53.250;7.456;2023-08-30T10:38:25;26.10;38.21
22917;DHT22;11624;53.250;7.456;2023-08-30T10:40:55;25.98;38.65
22917;DHT22;11624;53.250;7.456;2023-08-30T10:43:34;25.78;38.66
22917;DHT22;11624;53.250;7.456;2023-08-30T10:46:05;25.56;39.10
22917;DHT22;11624;53.250;7.456;2023-08-30T10:48:36;25.40;39.21
22917;DHT22;11624;53.250;7.456;2023-08-30T10:51:20;25.21;39.01
22917;DHT22;11624;53.250;7.456;2023-08-30T10:53:55;24.94;39.37
22917;DHT22;11624;53.250;7.456;2023-08-30T10:56:28;24.89;39.78
22917;DHT22;11624;53.250;7.456;2023-08-30T10:59:02;24.82;40.59
22917;DHT22;11624;53.250;7.456;2023-08-30T11:01:30;24.93;40.97
22917;DHT22;11624;53.250;7.456;2023-08-30T11:03:59;24.91;40.81
22917;DHT22;11624;53.250;7.456;2023-08-30T11:06:42;24.95;40.94
22917;DHT22;11624;53.250;7.456;2023-08-30T11:09:12;25.06;40.83
22917;DHT22;11624;53.250;7.456;2023-08-30T11:11:41;25.10;40.27
22917;DHT22;11624;53.250;7.456;2023-08-30T11:14:11;25.18;40.65
22917;DHT22;11624;53.250;7.456;2023-08-30T11:16:40;25.24;40.23
22917;DHT22;11624;53.250;7.456;2023-08-30T11:19:09;25.23;40.48
22917;DHT22;11624;53.250;7.456;2023-08-30T11:21:39;25.23;40.30
22917;DHT22;11624;53.250;7.456;2023-08-30T11:24:08;25.24;40.65
22917;DHT22;11624;53.250;7.456;2023-08-30T11:26:38;25.18;40.68
22917;DHT22;11624;53.250;7.456;2023-08-30T11:29:07;25.03;40.30
22917;DHT22;11624;53.250;7.456;2023-08-30T11:31:37;24.78;40.89
22917;DHT22;11624;53.250;7.456;2023-08-30T11:34:06;24.53;41.52
22917;DHT22;11624;53.250;7.456;2023-08-30T11:36:35;24.38;42.02
22917;DHT22;11624;53.250;7.456;2023-08-30T11:39:04;24.27;42.62
22917;DHT22;11624;53.250;7.456;2023-08-30T11:41:33;24.24;43.03
22917;DHT22;11624;53.250;7.456;2023-08-30T11:44:02;24.24;43.20
22917;DHT22;11624;53.250;7.456;2023-08-30T11:46:31;24.27;43.41
22917;DHT22;11624;53.250;7.456;2023-08-30T11:49:01;24.24;43.46
22917;DHT22;11624;53.250;7.456;2023-08-30T11:51:30;24.17;43.87
22917;DHT22;11624;53.250;7.456;2023-08-30T11:53:59;24.09;44.37
22917;DHT22;11624;53.250;7.456;2023-08-30T11:56:30;24.01;44.64
22917;DHT22;11624;53.250;7.456;2023-08-30T11:58:58;23.98;44.71
22917;DHT22;11624;53.250;7.456;2023-08-30T12:01:27;23.94;44.78
22917;DHT22;11624;53.250;7.456;2023-08-30T12:03:55;23.90;45.05
22917;DHT22;11624;53.250;7.456;2023-08-30T12:06:25;24.02;45.16
22917;DHT22;11624;53.250;7.456;2023-08-30T12:08:58;24.17;45.08
22917;DHT22;11624;53.250;7.456;2023-08-30T12:11:26;24.28;44.82
22917;DHT22;11624;53.250;7.456;2023-08-30T12:14:01;24.23;44.90
22917;DHT22;11624;53.250;7.456;2023-08-30T12:16:30;24.17;45.41
22917;DHT22;11624;53.250;7.456;2023-08-30T12:19:07;24.16;45.57
22917;DHT22;11624;53.250;7.456;2023-08-30T12:21:41;24.25;45.41
22917;DHT22;11624;53.250;7.456;2023-08-30T12:24:10;24.31;45.42
22917;DHT22;11624;53.250;7.456;2023-08-30T12:26:38;24.28;44.84
22917;DHT22;11624;53.250;7.456;2023-08-30T12:29:07;24.20;44.87
22917;DHT22;11624;53.250;7.456;2023-08-30T12:31:35;24.17;45.14
22917;DHT22;11624;53.250;7.456;2023-08-30T12:34:04;24.28;45.20
22917;DHT22;11624;53.250;7.456;2023-08-30T12:36:33;24.38;44.56
22917;DHT22;11624;53.250;7.456;2023-08-30T12:39:02;24.51;44.76
22917;DHT22;11624;53.250;7.456;2023-08-30T12:41:32;24.65;44.26
22917;DHT22;11624;53.250;7.456;2023-08-30T12:44:00;24.74;44.09
22917;DHT22;11624;53.250;7.456;2023-08-30T12:46:31;24.72;43.74
22917;DHT22;11624;53.250;7.456;2023-08-30T12:48:59;24.73;43.89
22917;DHT22;11624;53.250;7.456;2023-08-30T12:51:27;24.69;43.86
22917;DHT22;11624;53.250;7.456;2023-08-30T12:53:57;24.58;44.32
22917;DHT22;11624;53.250;7.456;2023-08-30T12:56:27;24.50;44.07
22917;DHT22;11624;53.250;7.456;2023-08-30T12:58:55;24.35;44.54
22917;DHT22;11624;53.250;7.456;2023-08-30T13:01:24;24.26;44.99
22917;DHT22;11624;53.250;7.456;2023-08-30T13:03:52;24.13;45.87
22917;DHT22;11624;53.250;7.456;2023-08-30T13:06:20;23.66;47.32
22917;DHT22;11624;53.250;7.456;2023-08-30T13:08:49;23.23;49.26
22917;DHT22;11624;53.250;7.456;2023-08-30T13:11:17;22.99;50.33
22917;DHT22;11624;53.250;7.456;2023-08-30T13:13:47;22.86;51.07
22917;DHT22;11624;53.250;7.456;2023-08-30T13:16:15;22.82;51.73
22917;DHT22;11624;53.250;7.456;2023-08-30T13:18:43;22.85;51.82
22917;DHT22;11624;53.250;7.456;2023-08-30T13:21:12;22.76;51.80
22917;DHT22;11624;53.250;7.456;2023-08-30T13:23:43;22.62;52.25
22917;DHT22;11624;53.250;7.456;2023-08-30T13:26:11;22.52;52.65
22917;DHT22;11624;53.250;7.456;2023-08-30T13:28:39;22.48;52.98
22917;DHT22;11624;53.250;7.456;2023-08-30T13:31:09;22.49;53.48
22917;DHT22;11624;53.250;7.456;2023-08-30T13:33:37;22.49;53.75
22917;DHT22;11624;53.250;7.456;2023-08-30T13:36:06;22.51;53.99
22917;DHT22;11624;53.250;7.456;2023-08-30T13:38:35;22.53;54.11
22917;DHT22;11624;53.250;7.456;2023-08-30T13:41:03;22.62;54.42
22917;DHT22;11624;53.250;7.456;2023-08-30T13:43:31;22.57;54.33
22917;DHT22;11624;53.250;7.456;2023-08-30T13:46:00;22.68;54.46
22917;DHT22;11624;53.250;7.456;2023-08-30T13:48:30;22.79;54.62
22917;DHT22;11624;53.250;7.456;2023-08-30T13:50:58;22.93;54.54
22917;DHT22;11624;53.250;7.456;2023-08-30T13:53:26;22.98;53.88
22917;DHT22;11624;53.250;7.456;2023-08-30T13:55:55;22.94;53.74
22917;DHT22;11624;53.250;7.456;2023-08-30T13:58:23;22.92;54.17
22917;DHT22;11624;53.250;7.456;2023-08-30T14:00:51;22.98;53.87
22917;DHT22;11624;53.250;7.456;2023-08-30T14:03:20;22.94;53.91
22917;DHT22;11624;53.250;7.456;2023-08-30T14:05:50;22.93;53.98
22917;DHT22;11624;53.250;7.456;2023-08-30T14:08:18;22.88;54.19
22917;DHT22;11624;53.250;7.456;2023-08-30T14:10:47;22.91;54.23
22917;DHT22;11624;53.250;7.456;2023-08-30T14:13:15;22.91;54.34
22917;DHT22;11624;53.250;7.456;2023-08-30T14:15:43;22.99;54.71
22917;DHT22;11624;53.250;7.456;2023-08-30T14:18:12;23.10;54.13
22917;DHT22;11624;53.250;7.456;2023-08-30T14:20:41;23.11;54.12
22917;DHT22;11624;53.250;7.456;2023-08-30T14:23:11;23.13;54.10
22917;DHT22;11624;53.250;7.456;2023-08-30T14:25:42;23.11;54.11
22917;DHT22;11624;53.250;7.456;2023-08-30T14:28:10;23.05;54.07
22917;DHT22;11624;53.250;7.456;2023-08-30T14:30:38;22.97;54.24
22917;DHT22;11624;53.250;7.456;2023-08-30T14:33:07;23.00;54.17
22917;DHT22;11624;53.250;7.456;2023-08-30T14:35:41;22.99;53.81
22917;DHT22;11624;53.250;7.456;2023-08-30T14:38:11;22.94;54.15
22917;DHT22;11624;53.250;7.456;2023-08-30T14:40:40;22.90;54.16
22917;DHT22;11624;53.250;7.456;2023-08-30T14:43:08;22.86;54.34
22917;DHT22;11624;53.250;7.456;2023-08-30T14:45:37;22.94;54.38
22917;DHT22;11624;53.250;7.456;2023-08-30T14:48:06;22.98;54.20
22917;DHT22;11624;53.250;7.456;2023-08-30T14:50:36;22.93;54.48
22917;DHT22;11624;53.250;7.456;2023-08-30T14:53:04;22.92;54.62
22917;DHT22;11624;53.250;7.456;2023-08-30T14:55:34;22.88;54.74
22917;DHT22;11624;53.250;7.456;2023-08-30T14:58:03;22.87;54.87
22917;DHT22;11624;53.250;7.456;2023-08-30T15:00:32;22.87;54.99
22917;DHT22;11624;53.250;7.456;2023-08-30T15:03:00;22.95;55.04
22917;DHT22;11624;53.250;7.456;2023-08-30T15:05:28;22.94;54.91
22917;DHT22;11624;53.250;7.456;2023-08-30T15:07:57;22.83;55.12
22917;DHT22;11624;53.250;7.456;2023-08-30T15:10:26;22.78;55.40
22917;DHT22;11624;53.250;7.456;2023-08-30T15:12:57;22.75;55.60
22917;DHT22;11624;53.250;7.456;2023-08-30T15:15:25;22.80;55.58
22917;DHT22;11624;53.250;7.456;2023-08-30T15:17:53;22.79;55.61
22917;DHT22;11624;53.250;7.456;2023-08-30T15:20:22;22.80;55.76
22917;DHT22;11624;53.250;7.456;2023-08-30T15:22:51;22.79;55.71
22917;DHT22;11624;53.250;7.456;2023-08-30T15:25:19;22.77;55.84
22917;DHT22;11624;53.250;7.456;2023-08-30T15:27:48;22.73;55.87
22917;DHT22;11624;53.250;7.456;2023-08-30T15:30:18;22.73;55.98
22917;DHT22;11624;53.250;7.456;2023-08-30T15:32:46;22.70;55.95
22917;DHT22;11624;53.250;7.456;2023-08-30T15:35:15;22.69;56.03
22917;DHT22;11624;53.250;7.456;2023-08-30T15:37:43;22.75;55.97
22917;DHT22;11624;53.250;7.456;2023-08-30T15:40:12;22.77;55.88
22917;DHT22;11624;53.250;7.456;2023-08-30T15:42:40;22.77;55.97
22917;DHT22;11624;53.250;7.456;2023-08-30T15:45:09;22.79;55.99
22917;DHT22;11624;53.250;7.456;2023-08-30T15:47:38;22.69;56.07
22917;DHT22;11624;53.250;7.456;2023-08-30T15:50:07;22.34;55.36
22917;DHT22;11624;53.250;7.456;2023-08-30T15:52:36;21.87;55.99
22917;DHT22;11624;53.250;7.456;2023-08-30T15:55:05;21.64;56.39
22917;DHT22;11624;53.250;7.456;2023-08-30T15:57:34;21.52;56.67
22917;DHT22;11624;53.250;7.456;2023-08-30T16:00:03;21.48;56.80
22917;DHT22;11624;53.250;7.456;2023-08-30T16:02:32;21.42;56.90
22917;DHT22;11624;53.250;7.456;2023-08-30T16:05:02;21.35;56.95
22917;DHT22;11624;53.250;7.456;2023-08-30T16:07:30;21.27;56.94
22917;DHT22;11624;53.250;7.456;2023-08-30T16:09:58;21.21;57.06
22917;DHT22;11624;53.250;7.456;2023-08-30T16:12:28;21.23;57.10
22917;DHT22;11624;53.250;7.456;2023-08-30T16:14:57;21.24;57.00
22917;DHT22;11624;53.250;7.456;2023-08-30T16:17:25;21.23;56.88
22917;DHT22;11624;53.250;7.456;2023-08-30T16:19:54;21.18;57.06
22917;DHT22;11624;53.250;7.456;2023-08-30T16:22:25;21.20;56.99
22917;DHT22;11624;53.250;7.456;2023-08-30T16:24:54;21.19;56.87
22917;DHT22;11624;53.250;7.456;2023-08-30T16:27:22;21.11;56.83
22917;DHT22;11624;53.250;7.456;2023-08-30T16:29:50;21.06;56.89
22917;DHT22;11624;53.250;7.456;2023-08-30T16:32:19;21.04;56.91
22917;DHT22;11624;53.250;7.456;2023-08-30T16:34:47;21.06;56.87
22917;DHT22;11624;53.250;7.456;2023-08-30T16:37:16;21.06;56.78
22917;DHT22;11624;53.250;7.456;2023-08-30T16:39:47;21.05;56.65
22917;DHT22;11624;53.250;7.456;2023-08-30T16:42:15;21.00;56.82
22917;DHT22;11624;53.250;7.456;2023-08-30T16:44:44;21.02;57.00
22917;DHT22;11624;53.250;7.456;2023-08-30T16:47:12;21.03;57.03
22917;DHT22;11624;53.250;7.456;2023-08-30T16:49:41;21.07;57.06
22917;DHT22;11624;53.250;7.456;2023-08-30T16:52:09;21.15;57.11
22917;DHT22;11624;53.250;7.456;2023-08-30T16:54:37;21.21;57.02
22917;DHT22;11624;53.250;7.456;2023-08-30T16:57:07;21.29;57.01